Time;durP1;ratioP1;P1;durP2;ratioP2;P2;SDS_P1;SDS_P2;PMS_P1;PMS_P2;Temp;Humidity;BMP_temperature;BMP_pressure;BME280_temperature;BME280_humidity;BME280_pressure;Samples;Min_cycle;Max_cycle;Signal;HPM_P1;HPM_P2
2023/04/01 00:01:39;;;;;;;;;;;;;;;6.88;100.00;95207.44;5113999;28;20008;-71
2023/04/01 00:04:05;;;;;;;;;;;;;;;6.88;100.00;95204.03;5114441;28;19944;-71
2023/04/01 00:06:31;;;;;;;;;;;;;;;6.88;100.00;95202.22;5114954;28;19937;-71
2023/04/01 00:08:56;;;;;;;;;;;;;;;6.88;100.00;95201.44;5114106;28;19967;-71
2023/04/01 00:11:22;;;;;;;;;;;;;;;6.88;100.00;95207.44;5114957;28;19984;-71
2023/04/01 00:13:48;;;;;;;;;;;;;;;6.87;100.00;95203.25;5114054;28;19949;-71
2023/04/01 00:16:15;;;;;;;;;;;;;;;6.87;100.00;95192.84;5114029;28;19943;-72
2023/04/01 00:18:41;;;;;;;;;;;;;;;6.87;100.00;95192.06;5114591;28;20419;-70
2023/04/01 00:21:07;;;;;;;;;;;;;;;6.85;100.00;95191.47;5113931;28;19995;-71
2023/04/01 00:23:33;;;;;;;;;;;;;;;6.84;100.00;95188.06;5114016;28;19942;-70
2023/04/01 00:26:00;;;;;;;;;;;;;;;6.82;100.00;95191.91;5113957;28;19947;-71
2023/04/01 00:28:27;;;;;;;;;;;;;;;6.82;100.00;95194.50;5113951;28;19940;-70
2023/04/01 00:30:52;;;;;;;;;;;;;;;6.84;100.00;95188.06;5114192;28;19946;-70
2023/04/01 00:33:18;;;;;;;;;;;;;;;6.85;100.00;95186.28;5113847;28;19999;-69
2023/04/01 00:35:44;;;;;;;;;;;;;;;6.83;100.00;95191.69;5113737;28;19991;-69
2023/04/01 00:38:11;;;;;;;;;;;;;;;6.86;100.00;95196.44;5113704;28;19943;-69
2023/04/01 00:40:38;;;;;;;;;;;;;;;6.84;100.00;95189.88;5113757;28;19939;-69
2023/04/01 00:43:10;;;;;;;;;;;;;;;6.85;100.00;95194.09;5113688;28;19945;-69
2023/04/01 00:45:38;;;;;;;;;;;;;;;6.83;100.00;95194.31;5113755;28;19947;-69
2023/04/01 00:48:07;;;;;;;;;;;;;;;6.83;100.00;95186.47;5114176;28;19946;-69
2023/04/01 00:50:34;;;;;;;;;;;;;;;6.83;100.00;95186.47;5113257;28;19949;-69
2023/04/01 00:53:00;;;;;;;;;;;;;;;6.80;100.00;95189.53;5113712;28;19940;-67
2023/04/01 00:55:28;;;;;;;;;;;;;;;6.80;100.00;95197.34;5095538;28;19946;-69
2023/04/01 00:57:56;;;;;;;;;;;;;;;6.80;100.00;95194.72;5112399;28;19939;-69
2023/04/01 01:00:21;;;;;;;;;;;;;;;6.79;100.00;95202.78;5114088;28;19961;-69
2023/04/01 01:02:50;;;;;;;;;;;;;;;6.77;100.00;95195.19;5114570;28;20011;-70
2023/04/01 01:05:18;;;;;;;;;;;;;;;6.79;100.00;95200.19;5117289;28;19949;-69
2023/04/01 01:07:52;;;;;;;;;;;;;;;6.80;100.00;95206.97;5118089;28;19939;-69
2023/04/01 01:10:24;;;;;;;;;;;;;;;6.80;100.00;95188.72;5117772;28;20306;-70
2023/04/01 01:12:53;;;;;;;;;;;;;;;6.78;100.00;95193.38;5117192;28;19966;-71
2023/04/01 01:15:28;;;;;;;;;;;;;;;6.74;100.00;95185.25;5117156;28;19937;-70
2023/04/01 01:18:02;;;;;;;;;;;;;;;6.70;100.00;95192.69;5117052;28;19944;-71
2023/04/01 01:20:46;;;;;;;;;;;;;;;6.68;100.00;95197.34;5117869;28;19959;-70
2023/04/01 01:23:30;;;;;;;;;;;;;;;6.67;100.00;95198.34;5117578;28;19941;-70
2023/04/01 01:26:17;;;;;;;;;;;;;;;6.68;100.00;95204.38;5117253;28;19940;-71
2023/04/01 01:28:43;;;;;;;;;;;;;;;6.68;100.00;95215.56;5117593;28;19944;-71
2023/04/01 01:31:16;;;;;;;;;;;;;;;6.66;100.00;95212.41;5115829;28;20383;-67
2023/04/01 01:33:55;;;;;;;;;;;;;;;6.65;100.00;95205.59;5117675;28;19948;-67
2023/04/01 01:36:21;;;;;;;;;;;;;;;6.66;100.00;95198.59;5117170;28;19965;-67
2023/04/01 01:38:48;;;;;;;;;;;;;;;6.67;100.00;95198.34;5117185;28;20416;-67
2023/04/01 01:41:16;;;;;;;;;;;;;;;6.67;100.00;95202.75;5116661;28;19955;-67
2023/04/01 01:43:44;;;;;;;;;;;;;;;6.64;100.00;95198.81;5116866;28;19942;-67
2023/04/01 01:46:13;;;;;;;;;;;;;;;6.64;100.00;95203.22;5116558;28;19943;-75
2023/04/01 01:48:41;;;;;;;;;;;;;;;6.61;100.00;95203.66;5116579;28;19941;-71
2023/04/01 01:51:08;;;;;;;;;;;;;;;6.57;100.00;95195.47;5116426;28;19952;-71
2023/04/01 01:53:34;;;;;;;;;;;;;;;6.56;100.00;95196.50;5116933;28;19995;-71
2023/04/01 01:56:00;;;;;;;;;;;;;;;6.55;100.00;95186.31;5116411;28;19945;-71
2023/04/01 01:58:32;;;;;;;;;;;;;;;6.55;100.00;95188.91;5117055;28;19944;-71
2023/04/01 02:01:04;;;;;;;;;;;;;;;6.55;100.00;95191.53;5116259;28;19944;-71
2023/04/01 02:03:32;;;;;;;;;;;;;;;6.52;100.00;95191.97;5117361;28;20267;-71
2023/04/01 02:06:00;;;;;;;;;;;;;;;6.51;100.00;95188.59;5116182;28;19955;-72
2023/04/01 02:08:27;;;;;;;;;;;;;;;6.51;100.00;95188.59;5116127;28;19944;-67
2023/04/01 02:11:05;;;;;;;;;;;;;;;6.48;100.00;95202.81;5116073;28;19940;-67
2023/04/01 02:13:35;;;;;;;;;;;;;;;6.46;100.00;95199.66;5116034;28;19945;-67
2023/04/01 02:16:07;;;;;;;;;;;;;;;6.42;100.00;95200.31;5115542;28;19939;-67
2023/04/01 02:18:35;;;;;;;;;;;;;;;6.40;100.00;95199.75;5116702;28;19948;-67
2023/04/01 02:21:02;;;;;;;;;;;;;;;6.40;100.00;95199.75;5116448;28;19948;-67
2023/04/01 02:23:28;;;;;;;;;;;;;;;6.40;100.00;95197.94;5116112;28;19964;-71
2023/04/01 02:25:54;;;;;;;;;;;;;;;6.40;100.00;95202.34;5114529;28;19941;-72
2023/04/01 02:28:20;;;;;;;;;;;;;;;6.43;100.00;95205.31;5115702;28;19942;-71
2023/04/01 02:30:47;;;;;;;;;;;;;;;6.45;100.00;95213.69;5116467;28;20270;-72
2023/04/01 02:33:13;;;;;;;;;;;;;;;6.43;100.00;95207.91;5116157;28;19941;-71
2023/04/01 02:35:39;;;;;;;;;;;;;;;6.44;100.00;95200.91;5115730;28;19946;-72
2023/04/01 02:38:05;;;;;;;;;;;;;;;6.42;100.00;95206.31;5115472;28;19985;-72
2023/04/01 02:40:40;;;;;;;;;;;;;;;6.40;100.00;95203.13;5115882;28;19956;-72
2023/04/01 02:43:06;;;;;;;;;;;;;;;6.38;100.00;95202.56;5116313;28;20367;-67
2023/04/01 02:45:32;;;;;;;;;;;;;;;6.36;100.00;95193.41;5115453;28;20002;-70
2023/04/01 02:47:58;;;;;;;;;;;;;;;6.35;100.00;95191.81;5115356;28;19949;-71
2023/04/01 02:50:24;;;;;;;;;;;;;;;6.32;100.00;95185.25;5115945;28;19939;-70
2023/04/01 02:52:50;;;;;;;;;;;;;;;6.32;100.00;95182.66;5115503;28;20405;-71
2023/04/01 02:55:15;;;;;;;;;;;;;;;6.29;100.00;95186.47;5115460;28;19966;-70
2023/04/01 02:57:41;;;;;;;;;;;;;;;6.32;100.00;95185.25;5116051;28;19940;-70
2023/04/01 03:00:11;;;;;;;;;;;;;;;6.30;100.00;95192.50;5115240;28;19954;-70
2023/04/01 03:02:37;;;;;;;;;;;;;;;6.27;100.00;95196.31;5115045;28;20441;-72
2023/04/01 03:05:04;;;;;;;;;;;;;;;6.26;100.00;95189.53;5115864;28;19944;-67
2023/04/01 03:07:30;;;;;;;;;;;;;;;6.25;100.00;95194.94;5115012;28;19944;-67
2023/04/01 03:09:55;;;;;;;;;;;;;;;6.21;100.00;95199.00;5115191;28;19971;-67
2023/04/01 03:12:21;;;;;;;;;;;;;;;6.19;100.00;95199.22;5114832;28;19955;-67
2023/04/01 03:14:47;;;;;;;;;;;;;;;6.16;100.00;95202.28;5114858;28;19943;-68
2023/04/01 03:17:13;;;;;;;;;;;;;;;6.17;100.00;95203.06;5114804;28;19999;-67
2023/04/01 03:19:39;;;;;;;;;;;;;;;6.18;100.00;95209.88;5115515;28;20011;-74
2023/04/01 03:22:05;;;;;;;;;;;;;;;6.19;100.00;95198.44;5115604;28;20030;-74
2023/04/01 03:24:31;;;;;;;;;;;;;;;6.20;100.00;95195.63;5114706;28;20324;-74
2023/04/01 03:26:56;;;;;;;;;;;;;;;6.20;100.00;95194.84;5113625;28;19942;-74
2023/04/01 03:29:22;;;;;;;;;;;;;;;6.18;100.00;95195.03;5115156;28;19997;-74
2023/04/01 03:31:48;;;;;;;;;;;;;;;6.16;100.00;95196.28;5114839;28;19940;-74
2023/04/01 03:34:14;;;;;;;;;;;;;;;6.14;100.00;95193.91;5114534;28;20426;-74
2023/04/01 03:36:40;;;;;;;;;;;;;;;6.15;100.00;95197.28;5114741;28;19959;-70
2023/04/01 03:39:06;;;;;;;;;;;;;;;6.15;100.00;95197.28;5114643;28;19964;-74
2023/04/01 03:41:32;;;;;;;;;;;;;;;6.13;100.00;95194.88;5114413;28;19942;-71
2023/04/01 03:43:58;;;;;;;;;;;;;;;6.12;100.00;95192.53;5114361;28;20309;-71
2023/04/01 03:46:23;;;;;;;;;;;;;;;6.12;100.00;95192.53;5115170;28;19940;-71
2023/04/01 03:48:49;;;;;;;;;;;;;;;6.08;100.00;95192.16;5114894;28;19955;-71
2023/04/01 03:51:15;;;;;;;;;;;;;;;6.04;100.00;95188.41;5114354;28;19951;-71
2023/04/01 03:53:41;;;;;;;;;;;;;;;6.00;100.00;95172.44;5114315;28;19997;-71
2023/04/01 03:56:07;;;;;;;;;;;;;;;5.98;100.00;95179.66;5114506;28;19941;-72
2023/04/01 03:58:33;;;;;;;;;;;;;;;5.94;100.00;95177.69;5114240;28;19945;-70
2023/04/01 04:00:59;;;;;;;;;;;;;;;5.87;100.00;95173.38;5114123;28;20006;-70
2023/04/01 04:03:26;;;;;;;;;;;;;;;5.85;100.00;95179.81;5114257;28;20463;-70
2023/04/01 04:05:51;;;;;;;;;;;;;;;5.80;100.00;95183.09;5114717;28;19941;-70
2023/04/01 04:08:17;;;;;;;;;;;;;;;5.76;100.00;95171.53;5115175;28;19937;-69
2023/04/01 04:10:44;;;;;;;;;;;;;;;5.71;100.00;95163.56;5114966;28;19945;-69
2023/04/01 04:13:10;;;;;;;;;;;;;;;5.68;100.00;95172.59;5114203;28;19941;-70
2023/04/01 04:15:35;;;;;;;;;;;;;;;5.64;100.00;95168.84;5114047;28;19939;-71
2023/04/01 04:18:01;;;;;;;;;;;;;;;5.64;100.00;95174.06;5114063;28;19952;-70
2023/04/01 04:20:27;;;;;;;;;;;;;;;5.64;100.00;95181.06;5114081;28;19988;-71
2023/04/01 04:22:53;;;;;;;;;;;;;;;5.66;100.00;95181.66;5113968;28;19944;-70
2023/04/01 04:25:19;;;;;;;;;;;;;;;5.65;100.00;95180.84;5115051;28;20268;-69
2023/04/01 04:27:45;;;;;;;;;;;;;;;5.66;100.00;95172.03;5114956;28;20381;-70
2023/04/01 04:30:11;;;;;;;;;;;;;;;5.68;100.00;95180.41;5113855;28;19951;-71
2023/04/01 04:32:37;;;;;;;;;;;;;;;5.69;100.00;95176.81;5113881;28;19989;-67
2023/04/01 04:35:03;;;;;;;;;;;;;;;5.70;100.00;95173.19;5114377;28;19955;-71
2023/04/01 04:37:29;;;;;;;;;;;;;;;5.75;100.00;95179.53;5114827;28;20065;-70
2023/04/01 04:39:54;;;;;;;;;;;;;;;5.75;100.00;95176.94;5117673;28;19964;-69
2023/04/01 04:42:20;;;;;;;;;;;;;;;5.75;100.00;95171.72;5117213;28;19946;-69
2023/04/01 04:44:46;;;;;;;;;;;;;;;5.79;100.00;95184.06;5118543;28;19935;-69
2023/04/01 04:47:12;;;;;;;;;;;;;;;5.82;100.00;95185.47;5117597;28;19951;-70
2023/04/01 04:49:38;;;;;;;;;;;;;;;5.85;100.00;95190.22;5117814;28;19942;-69
2023/04/01 04:52:04;;;;;;;;;;;;;;;5.87;100.00;95181.19;5116373;28;19949;-70
2023/04/01 04:54:30;;;;;;;;;;;;;;;5.89;100.00;95186.97;5118167;28;19941;-71
2023/04/01 04:56:56;;;;;;;;;;;;;;;5.92;100.00;95180.53;5118080;28;19945;-71
2023/04/01 04:59:22;;;;;;;;;;;;;;;5.94;100.00;95175.09;5117953;28;20418;-70
2023/04/01 05:01:48;;;;;;;;;;;;;;;5.97;100.00;95172.09;5117876;28;19987;-72
2023/04/01 05:04:13;;;;;;;;;;;;;;;5.98;100.00;95177.06;5116978;28;19955;-71
2023/04/01 05:06:39;;;;;;;;;;;;;;;5.99;100.00;95176.06;5117423;28;19941;-70
2023/04/01 05:09:05;;;;;;;;;;;;;;;6.01;100.00;95181.84;5117847;28;19938;-70
2023/04/01 05:11:31;;;;;;;;;;;;;;;6.02;100.00;95177.44;5117773;28;19945;-67
2023/04/01 05:13:57;;;;;;;;;;;;;;;6.03;100.00;95173.84;5117508;28;19942;-70
2023/04/01 05:16:23;;;;;;;;;;;;;;;6.07;100.00;95183.56;5117981;28;19939;-69
2023/04/01 05:18:48;;;;;;;;;;;;;;;6.10;100.00;95171.91;5117159;28;19940;-70
2023/04/01 05:21:15;;;;;;;;;;;;;;;6.12;100.00;95167.28;5117824;28;19958;-70
2023/04/01 05:23:41;;;;;;;;;;;;;;;6.12;100.00;95167.28;5116998;28;19940;-70
2023/04/01 05:26:09;;;;;;;;;;;;;;;6.15;100.00;95161.63;5117198;28;19960;-70
2023/04/01 05:28:35;;;;;;;;;;;;;;;6.18;100.00;95163.03;5116925;28;20392;-70
2023/04/01 05:31:05;;;;;;;;;;;;;;;6.21;100.00;95162.56;5116977;28;19990;-70
2023/04/01 05:33:31;;;;;;;;;;;;;;;6.23;100.00;95166.53;5117403;28;19948;-70
2023/04/01 05:35:56;;;;;;;;;;;;;;;6.24;100.00;95155.13;5116690;28;20010;-70
2023/04/01 05:38:22;;;;;;;;;;;;;;;6.27;100.00;95157.25;5116699;28;19985;-70
2023/04/01 05:40:48;;;;;;;;;;;;;;;6.28;100.00;95148.44;5116643;28;19958;-71
2023/04/01 05:43:14;;;;;;;;;;;;;;;6.30;100.00;95151.63;5115316;28;20044;-68
2023/04/01 05:45:40;;;;;;;;;;;;;;;6.34;100.00;95153.78;5116582;28;19947;-70
2023/04/01 05:48:06;;;;;;;;;;;;;;;6.39;100.00;95151.31;5116489;28;19964;-71
2023/04/01 05:50:31;;;;;;;;;;;;;;;6.44;100.00;95151.41;5116179;28;20317;-71
2023/04/01 05:52:57;;;;;;;;;;;;;;;6.45;100.00;95143.38;5117253;28;20369;-71
2023/04/01 05:55:23;;;;;;;;;;;;;;;6.58;100.00;95152.03;5117248;28;19942;-70
2023/04/01 05:57:49;;;;;;;;;;;;;;;6.77;100.00;95152.72;5116307;28;19939;-71
2023/04/01 06:00:16;;;;;;;;;;;;;;;6.87;100.00;95151.13;5116450;28;19961;-70
2023/04/01 06:02:42;;;;;;;;;;;;;;;6.89;100.00;95143.88;5116123;28;19975;-70
2023/04/01 06:05:14;;;;;;;;;;;;;;;6.88;100.00;95134.47;5116744;28;19956;-70
2023/04/01 06:07:40;;;;;;;;;;;;;;;6.84;100.00;95140.38;5116524;28;19943;-67
2023/04/01 06:10:11;;;;;;;;;;;;;;;6.77;100.00;95132.66;5116649;28;19944;-67
2023/04/01 06:12:44;;;;;;;;;;;;;;;6.76;100.00;95133.69;5116615;28;19966;-67
2023/04/01 06:15:10;;;;;;;;;;;;;;;6.77;100.00;95140.47;5116601;28;19945;-67
2023/04/01 06:17:54;;;;;;;;;;;;;;;6.79;100.00;95146.25;5114696;28;19947;-67
2023/04/01 06:20:25;;;;;;;;;;;;;;;6.80;100.00;95139.22;5115806;28;19954;-67
2023/04/01 06:23:01;;;;;;;;;;;;;;;6.81;100.00;95140.84;5115901;28;19944;-71
2023/04/01 06:25:35;;;;;;;;;;;;;;;6.80;100.00;95144.44;5116337;28;19964;-70
2023/04/01 06:28:13;;;;;;;;;;;;;;;6.78;100.00;95147.25;5116262;28;19935;-75
2023/04/01 06:30:48;;;;;;;;;;;;;;;6.77;100.00;95147.50;5115274;28;20008;-74
2023/04/01 06:33:32;;;;;;;;;;;;;;;6.77;100.00;95147.50;5116115;28;20349;-73
2023/04/01 06:36:06;;;;;;;;;;;;;;;6.74;100.00;95145.34;5115929;28;19956;-74
2023/04/01 06:38:46;;;;;;;;;;;;;;;6.74;100.00;95145.34;5116142;28;19951;-74
2023/04/01 06:41:48;;;;;;;;;;;;;;;6.74;100.00;95138.34;5115642;28;19956;-71
2023/04/01 06:44:19;;;;;;;;;;;;;;;6.76;100.00;95141.50;5072748;28;20424;-71
2023/04/01 06:46:45;;;;;;;;;;;;;;;6.78;100.00;95138.66;5108365;27;19953;-70
2023/04/01 06:49:30;;;;;;;;;;;;;;;6.81;100.00;95140.84;5115819;28;20315;-70
2023/04/01 06:52:11;;;;;;;;;;;;;;;6.84;100.00;95140.38;5115819;28;19946;-71
2023/04/01 06:54:42;;;;;;;;;;;;;;;6.85;100.00;95150.56;5113952;28;19947;-71
2023/04/01 06:57:19;;;;;;;;;;;;;;;6.90;100.00;95149.88;5115129;28;19942;-70
2023/04/01 06:59:45;;;;;;;;;;;;;;;6.93;100.00;95152.06;5115630;28;19964;-72
2023/04/01 07:02:21;;;;;;;;;;;;;;;6.99;100.00;95147.72;5115073;28;19973;-70
2023/04/01 07:04:48;;;;;;;;;;;;;;;7.01;100.00;95149.09;5115039;28;19947;-71
2023/04/01 07:07:19;;;;;;;;;;;;;;;7.03;100.00;95146.25;5114929;28;20311;-69
2023/04/01 07:09:50;;;;;;;;;;;;;;;7.02;100.00;95150.69;5115261;28;19962;-70
2023/04/01 07:12:30;;;;;;;;;;;;;;;7.01;100.00;95145.69;5115679;28;19941;-70
2023/04/01 07:14:58;;;;;;;;;;;;;;;6.98;100.00;95153.97;5115399;28;19948;-70
2023/04/01 07:17:28;;;;;;;;;;;;;;;6.99;100.00;95160.75;5114875;28;19949;-71
2023/04/01 07:20:00;;;;;;;;;;;;;;;7.00;100.00;95163.16;5114774;28;20319;-69
2023/04/01 07:22:31;;;;;;;;;;;;;;;7.01;100.00;95159.50;5114742;28;19941;-67
2023/04/01 07:25:01;;;;;;;;;;;;;;;7.03;100.00;95157.47;5115218;28;19936;-67
2023/04/01 07:27:27;;;;;;;;;;;;;;;7.07;100.00;95161.22;5115168;28;19944;-67
2023/04/01 07:29:55;;;;;;;;;;;;;;;7.09;100.00;95158.38;5114534;28;19941;-68
2023/04/01 07:32:48;;;;;;;;;;;;;;;7.14;100.00;95158.53;5114556;28;20299;-67
2023/04/01 07:35:15;;;;;;;;;;;;;;;7.20;100.00;95159.41;5112589;28;20306;-67
2023/04/01 07:37:53;;;;;;;;;;;;;;;7.24;100.00;95166.53;5114513;28;19968;-74
2023/04/01 07:40:18;;;;;;;;;;;;;;;7.28;100.00;95159.84;5115165;28;19955;-70
2023/04/01 07:42:54;;;;;;;;;;;;;;;7.34;100.00;95167.78;5114389;28;19946;-71
2023/04/01 07:45:27;;;;;;;;;;;;;;;7.35;100.00;95164.97;5114983;28;20299;-71
2023/04/01 07:48:16;;;;;;;;;;;;;;;7.37;100.00;95167.31;5114314;28;19944;-71
2023/04/01 07:50:44;;;;;;;;;;;;;;;7.38;100.00;95164.50;5108701;28;19944;-70
2023/04/01 07:53:43;;;;;;;;;;;;;;;7.37;100.00;95168.13;5114186;28;20350;-72
2023/04/01 07:56:10;;;;;;;;;;;;;;;7.39;100.00;95171.31;5091046;28;19942;-66
2023/04/01 07:58:54;;;;;;;;;;;;;;;7.40;100.00;95185.91;5115015;28;19965;-71
2023/04/01 08:01:20;;;;;;;;;;;;;;;7.42;100.00;95173.44;5113856;28;19964;-70
2023/04/01 08:04:05;;;;;;;;;;;;;;;7.45;100.00;95178.19;5114765;28;19944;-71
2023/04/01 08:06:31;;;;;;;;;;;;;;;7.43;100.00;95176.84;5114104;28;19943;-72
2023/04/01 08:09:07;;;;;;;;;;;;;;;7.36;100.00;95186.59;5113449;28;20278;-71
2023/04/01 08:11:32;;;;;;;;;;;;;;;7.37;100.00;95185.56;5114422;28;19948;-71
2023/04/01 08:14:03;;;;;;;;;;;;;;;7.37;100.00;95178.56;5116988;28;19942;-71
2023/04/01 08:16:36;;;;;;;;;;;;;;;7.37;100.00;95182.97;5119139;28;19954;-71
2023/04/01 08:19:18;;;;;;;;;;;;;;;7.36;100.00;95194.44;5117949;28;19951;-71
2023/04/01 08:21:57;;;;;;;;;;;;;;;7.34;100.00;95184.22;5118364;28;19960;-71
2023/04/01 08:24:38;;;;;;;;;;;;;;;7.30;100.00;95185.69;5118695;28;19951;-71
2023/04/01 08:27:10;;;;;;;;;;;;;;;7.27;100.00;95194.00;5118046;28;19947;-71
2023/04/01 08:29:40;;;;;;;;;;;;;;;7.24;100.00;95197.03;5118893;28;19949;-71
2023/04/01 08:32:08;;;;;;;;;;;;;;;7.23;100.00;95203.28;5118517;28;19979;-72
2023/04/01 08:34:37;;;;;;;;;;;;;;;7.22;100.00;95199.06;5118514;28;19945;-71
2023/04/01 08:37:08;;;;;;;;;;;;;;;7.23;100.00;95203.28;5117789;28;19961;-71
2023/04/01 08:39:37;;;;;;;;;;;;;;;7.22;100.00;95201.69;5118426;28;20274;-71
2023/04/01 08:42:21;;;;;;;;;;;;;;;7.22;100.00;95210.28;5117706;28;19967;-70
2023/04/01 08:45:06;;;;;;;;;;;;;;;7.19;100.00;95199.53;5117751;28;20382;-71
2023/04/01 08:47:43;;;;;;;;;;;;;;;7.17;100.00;95204.19;5117948;28;19948;-70
2023/04/01 08:50:12;;;;;;;;;;;;;;;7.17;100.00;95204.19;5117406;28;19936;-72
2023/04/01 08:53:11;;;;;;;;;;;;;;;7.21;100.00;95208.72;5117535;28;19945;-68
2023/04/01 08:55:45;;;;;;;;;;;;;;;7.26;100.00;95203.59;5094284;28;19949;-67
2023/04/01 08:58:23;;;;;;;;;;;;;;;7.33;100.00;95206.13;5118096;28;19939;-68
2023/04/01 09:00:54;;;;;;;;;;;;;;;7.35;100.00;95198.88;5117371;28;19965;-67
2023/04/01 09:03:36;;;;;;;;;;;;;;;7.43;100.00;95206.34;5117287;28;20335;-67
2023/04/01 09:06:08;;;;;;;;;;;;;;;7.53;100.00;95203.13;5117965;28;19949;-67
2023/04/01 09:08:51;;;;;;;;;;;;;;;7.61;100.00;95212.44;5116947;28;20452;-71
2023/04/01 09:14:19;;;;;;;;;;;;;;;7.69;100.00;95209.47;5035549;28;20321;-72
2023/04/01 09:17:01;;;;;;;;;;;;;;;7.69;100.00;95206.88;5019674;28;20431;-72
2023/04/01 09:19:38;;;;;;;;;;;;;;;7.72;100.00;95209.78;5019581;28;19958;-72
2023/04/01 09:22:21;;;;;;;;;;;;;;;7.74;100.00;95222.63;5036992;28;20371;-72
2023/04/01 09:25:01;;;;;;;;;;;;;;;7.73;100.00;95214.00;5036289;28;20389;-72
2023/04/01 09:27:33;;;;;;;;;;;;;;;7.71;100.00;95216.06;5036982;28;19952;-75
2023/04/01 09:29:59;;;;;;;;;;;;;;;7.72;100.00;95211.63;5036623;28;19944;-66
2023/04/01 09:32:28;;;;;;;;;;;;;;;7.76;100.00;95215.34;5018515;28;19999;-66
2023/04/01 09:34:59;;;;;;;;;;;;;;;7.81;100.00;95214.66;5036220;28;19972;-67
2023/04/01 09:37:30;;;;;;;;;;;;;;;7.88;100.00;95212.72;5036234;28;20356;-66
2023/04/01 09:39:56;;;;;;;;;;;;;;;7.99;100.00;95226.78;5035976;28;20405;-66
2023/04/01 09:42:22;;;;;;;;;;;;;;;8.10;100.00;95231.94;5018197;28;19960;-65
2023/04/01 09:44:53;;;;;;;;;;;;;;;8.12;100.00;95223.88;5036600;28;19946;-66
2023/04/01 09:47:37;;;;;;;;;;;;;;;8.10;100.00;95221.50;5036086;28;20301;-78
2023/04/01 09:50:16;;;;;;;;;;;;;;;8.03;100.00;95228.69;5035865;28;19948;-71
2023/04/01 09:52:47;;;;;;;;;;;;;;;8.01;100.00;95240.38;5035807;28;19944;-71
2023/04/01 09:55:22;;;;;;;;;;;;;;;7.98;100.00;95236.44;5035844;28;19946;-70
2023/04/01 09:57:54;;;;;;;;;;;;;;;7.98;100.00;95240.84;5036019;28;19945;-71
2023/04/01 10:00:26;;;;;;;;;;;;;;;7.94;100.00;95230.06;5035592;28;19964;-70
2023/04/01 10:02:54;;;;;;;;;;;;;;;7.89;100.00;95228.13;5035654;28;19950;-71
2023/04/01 10:05:39;;;;;;;;;;;;;;;7.86;100.00;95240.88;5036148;28;19948;-66
2023/04/01 10:08:05;;;;;;;;;;;;;;;7.85;100.00;95231.44;5036152;28;20396;-73
2023/04/01 10:10:46;;;;;;;;;;;;;;;7.84;100.00;95241.09;5035604;28;19949;-73
2023/04/01 10:13:11;;;;;;;;;;;;;;;7.82;100.00;95237.94;5035309;28;19972;-73
2023/04/01 10:15:50;;;;;;;;;;;;;;;7.82;100.00;95245.75;5036300;28;19950;-74
2023/04/01 10:18:16;;;;;;;;;;;;;;;7.90;100.00;95242.78;5035494;28;20315;-73
2023/04/01 10:20:56;;;;;;;;;;;;;;;7.96;100.00;95242.88;5035334;28;19957;-73
2023/04/01 10:23:24;;;;;;;;;;;;;;;8.00;100.00;95239.59;5035690;28;20397;-78
2023/04/01 10:26:04;;;;;;;;;;;;;;;8.03;100.00;95246.19;5035239;28;19957;-71
2023/04/01 10:28:47;;;;;;;;;;;;;;;8.06;100.00;95233.47;5035498;28;19953;-71
2023/04/01 10:31:18;;;;;;;;;;;;;;;8.07;100.00;95242.88;5035161;28;19945;-71
2023/04/01 10:33:44;;;;;;;;;;;;;;;8.17;100.00;95241.47;5035053;28;19944;-71
2023/04/01 10:36:16;;;;;;;;;;;;;;;8.27;100.00;95245.09;5034358;28;19958;-71
2023/04/01 10:38:48;;;;;;;;;;;;;;;8.34;100.00;95248.34;5034969;28;19935;-72
2023/04/01 10:41:20;;;;;;;;;;;;;;;8.42;100.00;95238.56;5034854;28;19959;-74
2023/04/01 10:44:04;;;;;;;;;;;;;;;8.46;100.00;95240.50;5034894;28;19943;-80
2023/04/01 10:46:49;;;;;;;;;;;;;;;8.52;100.00;95250.03;5035710;28;19938;-79
2023/04/01 10:49:30;;;;;;;;;;;;;;;8.56;100.00;95250.31;5034909;28;19942;-78
2023/04/01 10:52:14;;;;;;;;;;;;;;;8.53;100.00;95242.97;5034753;28;19945;-77
2023/04/01 10:54:46;;;;;;;;;;;;;;;8.56;100.00;95244.31;5035219;28;19955;-80
2023/04/01 10:57:22;;;;;;;;;;;;;;;8.54;100.00;95242.72;5035500;28;19943;-79
2023/04/01 10:59:58;;;;;;;;;;;;;;;8.50;100.00;95240.81;5034605;28;19956;-74
2023/04/01 11:02:42;;;;;;;;;;;;;;;8.46;100.00;95242.31;5035330;28;19960;-78
2023/04/01 11:05:26;;;;;;;;;;;;;;;8.45;100.00;95238.13;5034502;28;19965;-78
2023/04/01 11:07:58;;;;;;;;;;;;;;;8.43;100.00;95233.13;5034706;28;19949;-77
2023/04/01 11:10:42;;;;;;;;;;;;;;;8.45;100.00;95249.34;5034437;28;20305;-78
2023/04/01 11:13:08;;;;;;;;;;;;;;;8.54;100.00;95258.38;5034168;28;19980;-78
2023/04/01 11:15:48;;;;;;;;;;;;;;;8.59;100.00;95249.06;5034602;28;19955;-78
2023/04/01 11:18:32;;;;;;;;;;;;;;;8.57;100.00;95248.50;5034337;28;19939;-74
2023/04/01 11:21:13;;;;;;;;;;;;;;;8.64;100.00;95249.16;5034747;28;20311;-68
2023/04/01 11:23:51;;;;;;;;;;;;;;;8.70;100.00;95256.84;5034268;28;19955;-68
2023/04/01 11:26:32;;;;;;;;;;;;;;;8.78;100.00;95257.50;5017023;28;20399;-66
2023/04/01 11:29:17;;;;;;;;;;;;;;;8.82;100.00;95248.16;5034488;28;19938;-67
2023/04/01 11:31:46;;;;;;;;;;;;;;;8.85;100.00;95247.69;5034146;28;19936;-67
2023/04/01 11:34:38;;;;;;;;;;;;;;;8.91;100.00;95251.97;5034627;28;19949;-67
2023/04/01 11:37:14;;;;;;;;;;;;;;;9.04;100.00;95243.81;5018719;28;19968;-71
2023/04/01 11:39:51;;;;;;;;;;;;;;;9.08;99.93;95257.22;5034372;28;20387;-80
2023/04/01 11:42:28;;;;;;;;;;;;;;;9.14;100.00;95269.34;5034425;28;20333;-79
2023/04/01 11:44:57;;;;;;;;;;;;;;;9.18;100.00;95253.97;5016838;28;19953;-78
2023/04/01 11:47:41;;;;;;;;;;;;;;;9.15;100.00;95260.44;5033583;28;20324;-78
2023/04/01 11:50:13;;;;;;;;;;;;;;;9.18;100.00;95267.84;5033895;28;20051;-78
2023/04/01 11:52:51;;;;;;;;;;;;;;;9.23;100.00;95262.69;5034312;28;19941;-79
2023/04/01 11:55:17;;;;;;;;;;;;;;;9.26;100.00;95275.28;5034632;28;19945;-67
2023/04/01 11:57:51;;;;;;;;;;;;;;;9.31;99.35;95264.91;5033763;28;19947;-78
2023/04/01 12:00:19;;;;;;;;;;;;;;;9.28;99.90;95269.81;5034255;28;19946;-79
2023/04/01 12:02:48;;;;;;;;;;;;;;;9.31;98.31;95264.13;5034222;28;19949;-78
2023/04/01 12:05:26;;;;;;;;;;;;;;;9.40;98.49;95257.44;5033660;28;19946;-78
2023/04/01 12:08:11;;;;;;;;;;;;;;;9.60;100.00;95277.09;5033634;28;20319;-79
2023/04/01 12:10:39;;;;;;;;;;;;;;;9.77;99.94;95270.00;5034413;28;19950;-78
2023/04/01 12:13:20;;;;;;;;;;;;;;;9.86;98.09;95262.53;5033519;28;20317;-78
2023/04/01 12:15:58;;;;;;;;;;;;;;;9.87;95.90;95261.47;5033631;28;19953;-77
2023/04/01 12:18:48;;;;;;;;;;;;;;;9.82;96.16;95264.81;5033512;28;19953;-77
2023/04/01 12:21:32;;;;;;;;;;;;;;;9.77;98.00;95272.63;5034320;28;19960;-77
2023/04/01 12:24:00;;;;;;;;;;;;;;;9.75;96.45;95275.47;5033526;28;19941;-77
2023/04/01 12:26:29;;;;;;;;;;;;;;;9.72;94.72;95251.59;5033467;28;19939;-77
2023/04/01 12:28:55;;;;;;;;;;;;;;;9.70;94.99;95267.56;5033441;28;20453;-77
2023/04/01 12:31:22;;;;;;;;;;;;;;;9.70;93.77;95262.34;5033479;28;19970;-72
2023/04/01 12:33:51;;;;;;;;;;;;;;;9.72;92.82;95254.22;5033464;28;19967;-71
2023/04/01 12:36:17;;;;;;;;;;;;;;;9.73;93.17;95266.28;5033581;28;19965;-70
2023/04/01 12:38:52;;;;;;;;;;;;;;;9.70;93.84;95264.94;5033287;28;19939;-71
2023/04/01 12:41:31;;;;;;;;;;;;;;;9.80;96.40;95276.59;5033213;28;20460;-70
2023/04/01 12:43:57;;;;;;;;;;;;;;;10.01;96.71;95283.66;5033820;28;19948;-71
2023/04/01 12:46:26;;;;;;;;;;;;;;;10.13;93.66;95265.22;5033242;28;19948;-70
2023/04/01 12:48:52;;;;;;;;;;;;;;;10.27;95.38;95276.94;5033215;28;19955;-69
2023/04/01 12:51:29;;;;;;;;;;;;;;;10.44;92.43;95252.50;5033241;28;19943;-65
2023/04/01 12:54:08;;;;;;;;;;;;;;;10.66;95.22;95282.09;5033796;28;19952;-77
2023/04/01 12:56:44;;;;;;;;;;;;;;;10.87;92.32;95256.84;5033806;28;19949;-77
2023/04/01 12:59:10;;;;;;;;;;;;;;;10.99;89.06;95238.34;5035144;28;19948;-77
2023/04/01 13:01:48;;;;;;;;;;;;;;;11.05;89.98;95253.09;5036819;28;19965;-76
2023/04/01 13:04:17;;;;;;;;;;;;;;;11.06;86.53;95225.78;5036819;28;19940;-76
2023/04/01 13:06:42;;;;;;;;;;;;;;;10.96;86.99;95228.34;5036795;28;19951;-76
2023/04/01 13:09:19;;;;;;;;;;;;;;;10.87;87.60;95238.50;5036785;28;19949;-71
2023/04/01 13:11:52;;;;;;;;;;;;;;;10.66;85.35;95221.78;5036539;28;19954;-66